sensor_id;sensor_type;location;lat;lon;timestamp;P1;durP1;ratioP1;P2;durP2;ratioP2
21128;SDS011;10722;51.910;8.352;2022-08-01T00:02:24;29.15;;;17.33;;
21128;SDS011;10722;51.910;8.352;2022-08-01T00:05:09;27.75;;;17.65;;
21128;SDS011;10722;51.910;8.352;2022-08-01T00:07:55;29.27;;;17.20;;
21128;SDS011;10722;51.910;8.352;2022-08-01T00:10:40;28.42;;;17.77;;
21128;SDS011;10722;51.910;8.352;2022-08-01T00:13:25;30.63;;;18.30;;
21128;SDS011;10722;51.910;8.352;2022-08-01T00:16:10;28.73;;;19.83;;
21128;SDS011;10722;51.910;8.352;2022-08-01T00:18:55;33.35;;;18.88;;
21128;SDS011;10722;51.910;8.352;2022-08-01T00:21:40;31.17;;;19.38;;
21128;SDS011;10722;51.910;8.352;2022-08-01T00:24:36;34.20;;;19.90;;
21128;SDS011;10722;51.910;8.352;2022-08-01T00:27:21;32.00;;;19.92;;
21128;SDS011;10722;51.910;8.352;2022-08-01T00:30:06;29.30;;;18.55;;
21128;SDS011;10722;51.910;8.352;2022-08-01T00:32:56;29.60;;;18.55;;
21128;SDS011;10722;51.910;8.352;2022-08-01T00:35:41;27.58;;;16.23;;
21128;SDS011;10722;51.910;8.352;2022-08-01T00:38:27;29.30;;;16.95;;
21128;SDS011;10722;51.910;8.352;2022-08-01T00:41:11;26.60;;;16.45;;
21128;SDS011;10722;51.910;8.352;2022-08-01T00:43:57;24.27;;;14.93;;
21128;SDS011;10722;51.910;8.352;2022-08-01T00:46:42;26.77;;;15.82;;
21128;SDS011;10722;51.910;8.352;2022-08-01T00:49:28;27.40;;;16.10;;
21128;SDS011;10722;51.910;8.352;2022-08-01T00:52:13;27.63;;;16.92;;
21128;SDS011;10722;51.910;8.352;2022-08-01T00:54:58;26.63;;;15.63;;
21128;SDS011;10722;51.910;8.352;2022-08-01T00:57:44;27.33;;;16.00;;
21128;SDS011;10722;51.910;8.352;2022-08-01T01:00:49;29.60;;;16.40;;
21128;SDS011;10722;51.910;8.352;2022-08-01T01:03:38;24.25;;;15.70;;
21128;SDS011;10722;51.910;8.352;2022-08-01T01:10:03;27.42;;;16.20;;
21128;SDS011;10722;51.910;8.352;2022-08-01T01:13:02;31.30;;;16.70;;
21128;SDS011;10722;51.910;8.352;2022-08-01T01:16:13;29.58;;;17.45;;
21128;SDS011;10722;51.910;8.352;2022-08-01T01:19:00;29.70;;;17.27;;
21128;SDS011;10722;51.910;8.352;2022-08-01T01:22:22;33.15;;;18.52;;
21128;SDS011;10722;51.910;8.352;2022-08-01T01:31:18;29.83;;;17.98;;
21128;SDS011;10722;51.910;8.352;2022-08-01T01:34:06;30.90;;;19.17;;
21128;SDS011;10722;51.910;8.352;2022-08-01T01:36:54;34.75;;;18.20;;
21128;SDS011;10722;51.910;8.352;2022-08-01T01:39:41;30.80;;;18.67;;
21128;SDS011;10722;51.910;8.352;2022-08-01T01:42:33;29.88;;;18.75;;
21128;SDS011;10722;51.910;8.352;2022-08-01T01:45:19;33.55;;;18.10;;
21128;SDS011;10722;51.910;8.352;2022-08-01T01:48:06;30.05;;;17.65;;
21128;SDS011;10722;51.910;8.352;2022-08-01T01:50:52;30.35;;;17.50;;
21128;SDS011;10722;51.910;8.352;2022-08-01T01:53:38;29.48;;;17.02;;
21128;SDS011;10722;51.910;8.352;2022-08-01T01:56:25;27.38;;;15.45;;
21128;SDS011;10722;51.910;8.352;2022-08-01T01:59:12;28.33;;;16.08;;
21128;SDS011;10722;51.910;8.352;2022-08-01T02:01:58;29.52;;;16.15;;
21128;SDS011;10722;51.910;8.352;2022-08-01T02:04:50;26.88;;;15.85;;
21128;SDS011;10722;51.910;8.352;2022-08-01T02:07:37;32.92;;;16.42;;
21128;SDS011;10722;51.910;8.352;2022-08-01T02:10:24;28.58;;;15.38;;
21128;SDS011;10722;51.910;8.352;2022-08-01T02:13:12;25.83;;;14.70;;
21128;SDS011;10722;51.910;8.352;2022-08-01T02:15:59;25.63;;;13.73;;
21128;SDS011;10722;51.910;8.352;2022-08-01T02:18:45;22.73;;;12.65;;
21128;SDS011;10722;51.910;8.352;2022-08-01T02:21:40;22.27;;;12.45;;
21128;SDS011;10722;51.910;8.352;2022-08-01T02:27:40;24.88;;;12.55;;
21128;SDS011;10722;51.910;8.352;2022-08-01T02:30:37;22.23;;;11.38;;
21128;SDS011;10722;51.910;8.352;2022-08-01T02:33:28;22.00;;;10.90;;
21128;SDS011;10722;51.910;8.352;2022-08-01T02:36:19;20.27;;;10.38;;
21128;SDS011;10722;51.910;8.352;2022-08-01T02:39:17;19.10;;;9.82;;
21128;SDS011;10722;51.910;8.352;2022-08-01T02:42:06;21.42;;;10.07;;
21128;SDS011;10722;51.910;8.352;2022-08-01T02:44:53;19.98;;;9.55;;
21128;SDS011;10722;51.910;8.352;2022-08-01T02:47:40;16.50;;;8.25;;
21128;SDS011;10722;51.910;8.352;2022-08-01T02:50:28;17.55;;;8.48;;
21128;SDS011;10722;51.910;8.352;2022-08-01T02:53:16;14.90;;;7.85;;
21128;SDS011;10722;51.910;8.352;2022-08-01T02:56:05;15.75;;;7.57;;
21128;SDS011;10722;51.910;8.352;2022-08-01T02:58:51;17.33;;;7.65;;
21128;SDS011;10722;51.910;8.352;2022-08-01T03:01:37;19.90;;;7.50;;
21128;SDS011;10722;51.910;8.352;2022-08-01T03:04:26;15.65;;;7.32;;
21128;SDS011;10722;51.910;8.352;2022-08-01T03:07:13;16.15;;;7.40;;
21128;SDS011;10722;51.910;8.352;2022-08-01T03:09:59;19.77;;;7.55;;
21128;SDS011;10722;51.910;8.352;2022-08-01T03:12:46;16.05;;;7.38;;
21128;SDS011;10722;51.910;8.352;2022-08-01T03:15:35;17.63;;;8.27;;
21128;SDS011;10722;51.910;8.352;2022-08-01T03:18:24;20.10;;;8.55;;
21128;SDS011;10722;51.910;8.352;2022-08-01T03:21:10;17.63;;;8.65;;
21128;SDS011;10722;51.910;8.352;2022-08-01T03:23:59;17.15;;;8.40;;
21128;SDS011;10722;51.910;8.352;2022-08-01T03:26:46;17.45;;;8.27;;
21128;SDS011;10722;51.910;8.352;2022-08-01T03:29:32;19.10;;;7.97;;
21128;SDS011;10722;51.910;8.352;2022-08-01T03:32:19;19.45;;;8.85;;
21128;SDS011;10722;51.910;8.352;2022-08-01T03:35:05;19.02;;;8.77;;
21128;SDS011;10722;51.910;8.352;2022-08-01T03:37:52;18.83;;;8.70;;
21128;SDS011;10722;51.910;8.352;2022-08-01T03:41:02;20.10;;;9.77;;
21128;SDS011;10722;51.910;8.352;2022-08-01T03:44:00;18.90;;;9.73;;
21128;SDS011;10722;51.910;8.352;2022-08-01T03:46:59;18.30;;;9.35;;
21128;SDS011;10722;51.910;8.352;2022-08-01T03:49:47;18.98;;;9.60;;
21128;SDS011;10722;51.910;8.352;2022-08-01T03:52:33;21.80;;;10.82;;
21128;SDS011;10722;51.910;8.352;2022-08-01T03:55:22;21.35;;;10.10;;
21128;SDS011;10722;51.910;8.352;2022-08-01T03:58:09;20.52;;;10.30;;
21128;SDS011;10722;51.910;8.352;2022-08-01T04:00:58;21.30;;;10.82;;
21128;SDS011;10722;51.910;8.352;2022-08-01T04:04:02;20.65;;;10.32;;
21128;SDS011;10722;51.910;8.352;2022-08-01T04:06:48;20.25;;;10.32;;
21128;SDS011;10722;51.910;8.352;2022-08-01T04:09:33;20.08;;;10.02;;
21128;SDS011;10722;51.910;8.352;2022-08-01T04:12:19;25.45;;;10.23;;
21128;SDS011;10722;51.910;8.352;2022-08-01T04:15:22;20.73;;;10.05;;
21128;SDS011;10722;51.910;8.352;2022-08-01T04:18:13;19.10;;;9.73;;
21128;SDS011;10722;51.910;8.352;2022-08-01T04:20:58;19.35;;;9.90;;
21128;SDS011;10722;51.910;8.352;2022-08-01T04:23:44;20.70;;;10.15;;
21128;SDS011;10722;51.910;8.352;2022-08-01T04:26:36;18.77;;;9.52;;
21128;SDS011;10722;51.910;8.352;2022-08-01T04:29:23;20.55;;;10.10;;
21128;SDS011;10722;51.910;8.352;2022-08-01T04:32:10;21.58;;;10.82;;
21128;SDS011;10722;51.910;8.352;2022-08-01T04:34:58;21.88;;;10.05;;
21128;SDS011;10722;51.910;8.352;2022-08-01T04:37:44;21.83;;;11.13;;
21128;SDS011;10722;51.910;8.352;2022-08-01T04:40:33;21.25;;;10.13;;
21128;SDS011;10722;51.910;8.352;2022-08-01T04:43:20;22.58;;;10.85;;
21128;SDS011;10722;51.910;8.352;2022-08-01T04:46:06;24.52;;;10.75;;
21128;SDS011;10722;51.910;8.352;2022-08-01T04:48:53;24.55;;;11.60;;
21128;SDS011;10722;51.910;8.352;2022-08-01T04:51:49;23.15;;;11.65;;
21128;SDS011;10722;51.910;8.352;2022-08-01T04:54:36;22.65;;;11.77;;
21128;SDS011;10722;51.910;8.352;2022-08-01T04:57:21;23.38;;;12.90;;
21128;SDS011;10722;51.910;8.352;2022-08-01T05:00:07;22.02;;;11.85;;
21128;SDS011;10722;51.910;8.352;2022-08-01T05:02:53;23.17;;;12.43;;
21128;SDS011;10722;51.910;8.352;2022-08-01T05:05:41;23.88;;;12.18;;
21128;SDS011;10722;51.910;8.352;2022-08-01T05:08:40;22.75;;;12.15;;
21128;SDS011;10722;51.910;8.352;2022-08-01T05:11:26;24.17;;;12.80;;
21128;SDS011;10722;51.910;8.352;2022-08-01T05:14:12;25.27;;;12.85;;
21128;SDS011;10722;51.910;8.352;2022-08-01T05:16:57;21.60;;;11.73;;
21128;SDS011;10722;51.910;8.352;2022-08-01T05:19:52;22.15;;;11.55;;
21128;SDS011;10722;51.910;8.352;2022-08-01T05:22:38;20.30;;;11.20;;
21128;SDS011;10722;51.910;8.352;2022-08-01T05:25:26;19.52;;;10.93;;
21128;SDS011;10722;51.910;8.352;2022-08-01T05:28:26;19.23;;;9.75;;
21128;SDS011;10722;51.910;8.352;2022-08-01T05:31:25;20.33;;;10.50;;
21128;SDS011;10722;51.910;8.352;2022-08-01T05:34:10;18.30;;;9.13;;
21128;SDS011;10722;51.910;8.352;2022-08-01T05:40:13;19.23;;;8.73;;
21128;SDS011;10722;51.910;8.352;2022-08-01T05:42:58;16.75;;;8.77;;
21128;SDS011;10722;51.910;8.352;2022-08-01T05:45:43;17.92;;;8.70;;
21128;SDS011;10722;51.910;8.352;2022-08-01T05:48:29;46.53;;;34.75;;
21128;SDS011;10722;51.910;8.352;2022-08-01T05:51:14;19.45;;;10.93;;
21128;SDS011;10722;51.910;8.352;2022-08-01T05:54:00;19.58;;;10.45;;
21128;SDS011;10722;51.910;8.352;2022-08-01T05:56:45;20.27;;;10.07;;
21128;SDS011;10722;51.910;8.352;2022-08-01T05:59:31;20.00;;;10.45;;
21128;SDS011;10722;51.910;8.352;2022-08-01T06:02:16;20.17;;;11.45;;
21128;SDS011;10722;51.910;8.352;2022-08-01T06:05:01;21.20;;;11.23;;
21128;SDS011;10722;51.910;8.352;2022-08-01T06:07:47;18.50;;;10.20;;
21128;SDS011;10722;51.910;8.352;2022-08-01T06:10:32;20.85;;;10.52;;
21128;SDS011;10722;51.910;8.352;2022-08-01T06:13:17;18.05;;;10.75;;
21128;SDS011;10722;51.910;8.352;2022-08-01T06:16:12;19.45;;;10.95;;
21128;SDS011;10722;51.910;8.352;2022-08-01T06:19:15;17.80;;;9.05;;
21128;SDS011;10722;51.910;8.352;2022-08-01T06:22:03;19.30;;;9.60;;
21128;SDS011;10722;51.910;8.352;2022-08-01T06:24:49;22.23;;;13.82;;
21128;SDS011;10722;51.910;8.352;2022-08-01T06:27:34;19.40;;;11.85;;
21128;SDS011;10722;51.910;8.352;2022-08-01T06:30:20;16.67;;;9.07;;
21128;SDS011;10722;51.910;8.352;2022-08-01T06:33:05;18.25;;;9.73;;
21128;SDS011;10722;51.910;8.352;2022-08-01T06:35:50;18.25;;;9.20;;
21128;SDS011;10722;51.910;8.352;2022-08-01T06:38:35;17.27;;;9.48;;
21128;SDS011;10722;51.910;8.352;2022-08-01T06:41:20;18.65;;;9.45;;
21128;SDS011;10722;51.910;8.352;2022-08-01T06:44:06;16.48;;;9.05;;
21128;SDS011;10722;51.910;8.352;2022-08-01T06:46:50;15.45;;;8.57;;
21128;SDS011;10722;51.910;8.352;2022-08-01T06:49:36;17.33;;;9.15;;
21128;SDS011;10722;51.910;8.352;2022-08-01T06:52:21;16.42;;;9.18;;
21128;SDS011;10722;51.910;8.352;2022-08-01T06:55:07;17.02;;;8.73;;
21128;SDS011;10722;51.910;8.352;2022-08-01T06:57:53;18.02;;;8.20;;
21128;SDS011;10722;51.910;8.352;2022-08-01T07:00:38;16.67;;;9.20;;
21128;SDS011;10722;51.910;8.352;2022-08-01T07:03:23;15.40;;;8.40;;
21128;SDS011;10722;51.910;8.352;2022-08-01T07:06:11;14.57;;;7.93;;
21128;SDS011;10722;51.910;8.352;2022-08-01T07:08:59;14.63;;;7.68;;
21128;SDS011;10722;51.910;8.352;2022-08-01T07:11:53;15.93;;;6.35;;
21128;SDS011;10722;51.910;8.352;2022-08-01T07:14:39;13.45;;;6.63;;
21128;SDS011;10722;51.910;8.352;2022-08-01T07:17:24;12.23;;;5.93;;
21128;SDS011;10722;51.910;8.352;2022-08-01T07:20:10;14.18;;;7.63;;
21128;SDS011;10722;51.910;8.352;2022-08-01T07:23:00;12.60;;;6.28;;
21128;SDS011;10722;51.910;8.352;2022-08-01T07:25:46;14.50;;;6.05;;
21128;SDS011;10722;51.910;8.352;2022-08-01T07:28:36;12.63;;;5.00;;
21128;SDS011;10722;51.910;8.352;2022-08-01T07:31:27;12.23;;;5.15;;
21128;SDS011;10722;51.910;8.352;2022-08-01T07:34:15;14.82;;;5.97;;
21128;SDS011;10722;51.910;8.352;2022-08-01T07:37:00;11.85;;;5.50;;
21128;SDS011;10722;51.910;8.352;2022-08-01T07:39:46;12.13;;;5.00;;
21128;SDS011;10722;51.910;8.352;2022-08-01T07:42:34;11.43;;;5.30;;
21128;SDS011;10722;51.910;8.352;2022-08-01T07:45:19;14.13;;;5.82;;
21128;SDS011;10722;51.910;8.352;2022-08-01T07:48:05;12.48;;;6.03;;
21128;SDS011;10722;51.910;8.352;2022-08-01T07:50:53;12.93;;;5.82;;
21128;SDS011;10722;51.910;8.352;2022-08-01T07:53:38;11.30;;;4.60;;
21128;SDS011;10722;51.910;8.352;2022-08-01T07:56:23;11.27;;;4.68;;
21128;SDS011;10722;51.910;8.352;2022-08-01T07:59:09;10.32;;;4.10;;
21128;SDS011;10722;51.910;8.352;2022-08-01T08:01:54;10.30;;;3.95;;
21128;SDS011;10722;51.910;8.352;2022-08-01T08:04:40;8.10;;;3.42;;
21128;SDS011;10722;51.910;8.352;2022-08-01T08:07:32;7.38;;;3.30;;
21128;SDS011;10722;51.910;8.352;2022-08-01T08:10:17;7.40;;;3.17;;
21128;SDS011;10722;51.910;8.352;2022-08-01T08:13:03;8.68;;;3.47;;
21128;SDS011;10722;51.910;8.352;2022-08-01T08:15:49;9.02;;;3.83;;
21128;SDS011;10722;51.910;8.352;2022-08-01T08:18:34;10.85;;;3.22;;
21128;SDS011;10722;51.910;8.352;2022-08-01T08:21:19;6.97;;;3.00;;
21128;SDS011;10722;51.910;8.352;2022-08-01T08:24:05;6.93;;;3.30;;
21128;SDS011;10722;51.910;8.352;2022-08-01T08:26:56;8.52;;;3.20;;
21128;SDS011;10722;51.910;8.352;2022-08-01T08:29:43;7.78;;;3.10;;
21128;SDS011;10722;51.910;8.352;2022-08-01T08:32:29;8.25;;;2.70;;
21128;SDS011;10722;51.910;8.352;2022-08-01T08:35:15;7.47;;;2.88;;
21128;SDS011;10722;51.910;8.352;2022-08-01T08:38:21;4.75;;;2.50;;
21128;SDS011;10722;51.910;8.352;2022-08-01T08:41:13;7.28;;;2.58;;
21128;SDS011;10722;51.910;8.352;2022-08-01T08:44:05;4.88;;;2.53;;
21128;SDS011;10722;51.910;8.352;2022-08-01T08:46:54;5.90;;;2.60;;
21128;SDS011;10722;51.910;8.352;2022-08-01T08:49:43;7.28;;;3.08;;
21128;SDS011;10722;51.910;8.352;2022-08-01T08:52:33;6.40;;;2.97;;
21128;SDS011;10722;51.910;8.352;2022-08-01T08:55:22;6.95;;;2.47;;
21128;SDS011;10722;51.910;8.352;2022-08-01T08:58:12;4.65;;;2.30;;
21128;SDS011;10722;51.910;8.352;2022-08-01T09:00:58;4.53;;;2.30;;
21128;SDS011;10722;51.910;8.352;2022-08-01T09:03:44;5.97;;;2.20;;
21128;SDS011;10722;51.910;8.352;2022-08-01T09:06:29;4.30;;;2.10;;
21128;SDS011;10722;51.910;8.352;2022-08-01T09:09:16;3.80;;;2.05;;
21128;SDS011;10722;51.910;8.352;2022-08-01T09:12:02;4.47;;;2.15;;
21128;SDS011;10722;51.910;8.352;2022-08-01T09:14:47;5.32;;;2.33;;
21128;SDS011;10722;51.910;8.352;2022-08-01T09:17:39;5.53;;;2.47;;
21128;SDS011;10722;51.910;8.352;2022-08-01T09:20:25;4.78;;;2.05;;
21128;SDS011;10722;51.910;8.352;2022-08-01T09:23:30;5.95;;;2.20;;
21128;SDS011;10722;51.910;8.352;2022-08-01T09:26:17;8.10;;;2.70;;
21128;SDS011;10722;51.910;8.352;2022-08-01T09:29:06;7.65;;;2.83;;
21128;SDS011;10722;51.910;8.352;2022-08-01T09:31:54;6.30;;;2.50;;
21128;SDS011;10722;51.910;8.352;2022-08-01T09:34:40;5.03;;;2.45;;
21128;SDS011;10722;51.910;8.352;2022-08-01T09:37:30;6.38;;;2.92;;
21128;SDS011;10722;51.910;8.352;2022-08-01T09:40:21;6.30;;;2.70;;
21128;SDS011;10722;51.910;8.352;2022-08-01T09:43:10;5.50;;;2.75;;
21128;SDS011;10722;51.910;8.352;2022-08-01T09:45:59;6.43;;;2.92;;
21128;SDS011;10722;51.910;8.352;2022-08-01T09:49:00;7.07;;;3.17;;
21128;SDS011;10722;51.910;8.352;2022-08-01T09:51:54;8.70;;;3.67;;
21128;SDS011;10722;51.910;8.352;2022-08-01T09:54:51;8.15;;;3.65;;
21128;SDS011;10722;51.910;8.352;2022-08-01T09:57:55;9.18;;;3.90;;
21128;SDS011;10722;51.910;8.352;2022-08-01T10:00:41;8.02;;;3.80;;
21128;SDS011;10722;51.910;8.352;2022-08-01T10:03:29;11.40;;;4.35;;
21128;SDS011;10722;51.910;8.352;2022-08-01T10:06:23;10.18;;;4.35;;
21128;SDS011;10722;51.910;8.352;2022-08-01T10:09:10;11.40;;;5.68;;
21128;SDS011;10722;51.910;8.352;2022-08-01T10:11:57;12.77;;;5.90;;
21128;SDS011;10722;51.910;8.352;2022-08-01T10:14:46;11.95;;;5.35;;
21128;SDS011;10722;51.910;8.352;2022-08-01T10:17:34;13.98;;;6.40;;
21128;SDS011;10722;51.910;8.352;2022-08-01T10:20:35;11.32;;;5.75;;
21128;SDS011;10722;51.910;8.352;2022-08-01T10:23:21;14.43;;;6.25;;
21128;SDS011;10722;51.910;8.352;2022-08-01T10:26:25;13.52;;;6.60;;
21128;SDS011;10722;51.910;8.352;2022-08-01T10:29:15;14.18;;;6.40;;
21128;SDS011;10722;51.910;8.352;2022-08-01T10:32:22;12.65;;;6.45;;
21128;SDS011;10722;51.910;8.352;2022-08-01T10:35:08;12.30;;;5.53;;
21128;SDS011;10722;51.910;8.352;2022-08-01T10:37:59;14.68;;;6.35;;
21128;SDS011;10722;51.910;8.352;2022-08-01T10:40:44;13.35;;;5.95;;
21128;SDS011;10722;51.910;8.352;2022-08-01T10:43:30;11.82;;;5.55;;
21128;SDS011;10722;51.910;8.352;2022-08-01T10:46:18;10.10;;;4.78;;
21128;SDS011;10722;51.910;8.352;2022-08-01T10:49:06;15.68;;;5.72;;
21128;SDS011;10722;51.910;8.352;2022-08-01T10:51:56;13.40;;;5.72;;
21128;SDS011;10722;51.910;8.352;2022-08-01T10:54:42;13.82;;;5.90;;
21128;SDS011;10722;51.910;8.352;2022-08-01T10:57:43;13.57;;;6.05;;
21128;SDS011;10722;51.910;8.352;2022-08-01T11:00:37;13.90;;;6.13;;
21128;SDS011;10722;51.910;8.352;2022-08-01T11:03:32;12.20;;;5.88;;
21128;SDS011;10722;51.910;8.352;2022-08-01T11:06:40;12.35;;;6.00;;
21128;SDS011;10722;51.910;8.352;2022-08-01T11:09:42;12.35;;;5.97;;
21128;SDS011;10722;51.910;8.352;2022-08-01T11:12:39;14.68;;;5.90;;
21128;SDS011;10722;51.910;8.352;2022-08-01T11:15:27;13.65;;;6.32;;
21128;SDS011;10722;51.910;8.352;2022-08-01T11:21:14;14.38;;;6.30;;
21128;SDS011;10722;51.910;8.352;2022-08-01T11:27:35;13.90;;;6.65;;
21128;SDS011;10722;51.910;8.352;2022-08-01T11:30:21;14.52;;;6.90;;
21128;SDS011;10722;51.910;8.352;2022-08-01T11:33:08;13.43;;;7.18;;
21128;SDS011;10722;51.910;8.352;2022-08-01T11:41:42;13.98;;;7.47;;
21128;SDS011;10722;51.910;8.352;2022-08-01T11:44:29;12.63;;;7.00;;
21128;SDS011;10722;51.910;8.352;2022-08-01T11:53:13;12.65;;;6.20;;
21128;SDS011;10722;51.910;8.352;2022-08-01T11:55:59;12.32;;;5.72;;
21128;SDS011;10722;51.910;8.352;2022-08-01T11:58:46;12.43;;;5.47;;
21128;SDS011;10722;51.910;8.352;2022-08-01T12:01:32;12.75;;;6.10;;
21128;SDS011;10722;51.910;8.352;2022-08-01T12:04:17;10.18;;;5.13;;
21128;SDS011;10722;51.910;8.352;2022-08-01T12:07:13;12.30;;;4.78;;
21128;SDS011;10722;51.910;8.352;2022-08-01T12:10:00;10.00;;;5.00;;
21128;SDS011;10722;51.910;8.352;2022-08-01T12:12:49;13.02;;;5.18;;
21128;SDS011;10722;51.910;8.352;2022-08-01T12:15:39;12.65;;;5.28;;
21128;SDS011;10722;51.910;8.352;2022-08-01T12:18:24;10.85;;;5.18;;
21128;SDS011;10722;51.910;8.352;2022-08-01T12:21:11;11.20;;;5.60;;
21128;SDS011;10722;51.910;8.352;2022-08-01T12:24:00;11.18;;;5.53;;
21128;SDS011;10722;51.910;8.352;2022-08-01T12:26:46;12.60;;;6.05;;
21128;SDS011;10722;51.910;8.352;2022-08-01T12:29:39;9.70;;;4.70;;
21128;SDS011;10722;51.910;8.352;2022-08-01T12:32:30;9.05;;;4.40;;
21128;SDS011;10722;51.910;8.352;2022-08-01T12:35:20;11.80;;;5.07;;
21128;SDS011;10722;51.910;8.352;2022-08-01T12:38:13;10.88;;;5.68;;
21128;SDS011;10722;51.910;8.352;2022-08-01T12:40:59;11.25;;;5.60;;
21128;SDS011;10722;51.910;8.352;2022-08-01T12:43:45;17.73;;;10.40;;
21128;SDS011;10722;51.910;8.352;2022-08-01T12:46:30;11.52;;;5.65;;
21128;SDS011;10722;51.910;8.352;2022-08-01T12:49:15;10.85;;;5.15;;
21128;SDS011;10722;51.910;8.352;2022-08-01T12:52:01;12.02;;;5.60;;
21128;SDS011;10722;51.910;8.352;2022-08-01T12:54:59;11.65;;;5.13;;
21128;SDS011;10722;51.910;8.352;2022-08-01T12:57:49;11.40;;;5.43;;
21128;SDS011;10722;51.910;8.352;2022-08-01T13:00:47;12.00;;;4.93;;
21128;SDS011;10722;51.910;8.352;2022-08-01T13:03:34;11.60;;;5.50;;
21128;SDS011;10722;51.910;8.352;2022-08-01T13:06:20;12.95;;;5.53;;
21128;SDS011;10722;51.910;8.352;2022-08-01T13:09:06;13.82;;;5.35;;
21128;SDS011;10722;51.910;8.352;2022-08-01T13:11:54;13.30;;;6.22;;
21128;SDS011;10722;51.910;8.352;2022-08-01T13:14:49;12.02;;;5.10;;
21128;SDS011;10722;51.910;8.352;2022-08-01T13:17:34;11.57;;;4.80;;
21128;SDS011;10722;51.910;8.352;2022-08-01T13:20:23;14.63;;;5.93;;
21128;SDS011;10722;51.910;8.352;2022-08-01T13:23:15;13.82;;;6.07;;
21128;SDS011;10722;51.910;8.352;2022-08-01T13:29:36;11.70;;;4.78;;
21128;SDS011;10722;51.910;8.352;2022-08-01T13:32:23;11.23;;;4.28;;
21128;SDS011;10722;51.910;8.352;2022-08-01T13:35:14;10.15;;;4.15;;
21128;SDS011;10722;51.910;8.352;2022-08-01T13:37:59;10.25;;;3.72;;
21128;SDS011;10722;51.910;8.352;2022-08-01T13:40:45;10.35;;;3.70;;
21128;SDS011;10722;51.910;8.352;2022-08-01T13:43:31;17.70;;;8.85;;
21128;SDS011;10722;51.910;8.352;2022-08-01T13:46:37;12.05;;;5.07;;
21128;SDS011;10722;51.910;8.352;2022-08-01T13:49:33;7.35;;;3.15;;
21128;SDS011;10722;51.910;8.352;2022-08-01T13:52:22;9.07;;;3.03;;
21128;SDS011;10722;51.910;8.352;2022-08-01T13:55:07;7.63;;;2.90;;
21128;SDS011;10722;51.910;8.352;2022-08-01T13:57:55;8.52;;;2.63;;
21128;SDS011;10722;51.910;8.352;2022-08-01T14:00:40;7.60;;;2.67;;
21128;SDS011;10722;51.910;8.352;2022-08-01T14:03:26;9.50;;;3.22;;
21128;SDS011;10722;51.910;8.352;2022-08-01T14:06:18;9.73;;;2.90;;
21128;SDS011;10722;51.910;8.352;2022-08-01T14:09:04;10.70;;;3.30;;
21128;SDS011;10722;51.910;8.352;2022-08-01T14:12:02;8.85;;;3.13;;
21128;SDS011;10722;51.910;8.352;2022-08-01T14:14:47;7.93;;;3.00;;
21128;SDS011;10722;51.910;8.352;2022-08-01T14:17:33;8.77;;;2.97;;
21128;SDS011;10722;51.910;8.352;2022-08-01T14:20:22;11.65;;;3.92;;
21128;SDS011;10722;51.910;8.352;2022-08-01T14:23:07;13.23;;;3.70;;
21128;SDS011;10722;51.910;8.352;2022-08-01T14:25:53;13.15;;;4.00;;
21128;SDS011;10722;51.910;8.352;2022-08-01T14:28:49;11.23;;;3.70;;
21128;SDS011;10722;51.910;8.352;2022-08-01T14:31:34;7.32;;;3.20;;
21128;SDS011;10722;51.910;8.352;2022-08-01T14:34:19;8.77;;;3.40;;
21128;SDS011;10722;51.910;8.352;2022-08-01T14:37:04;10.18;;;3.60;;
21128;SDS011;10722;51.910;8.352;2022-08-01T14:39:51;10.77;;;3.70;;
21128;SDS011;10722;51.910;8.352;2022-08-01T14:42:38;10.43;;;3.80;;
21128;SDS011;10722;51.910;8.352;2022-08-01T14:45:24;8.95;;;3.60;;
21128;SDS011;10722;51.910;8.352;2022-08-01T14:48:09;15.38;;;6.38;;
21128;SDS011;10722;51.910;8.352;2022-08-01T14:50:55;23.83;;;13.05;;
21128;SDS011;10722;51.910;8.352;2022-08-01T14:53:40;14.63;;;5.75;;
21128;SDS011;10722;51.910;8.352;2022-08-01T14:56:31;10.18;;;3.58;;
21128;SDS011;10722;51.910;8.352;2022-08-01T14:59:16;8.27;;;3.20;;
21128;SDS011;10722;51.910;8.352;2022-08-01T15:02:06;8.43;;;3.00;;
21128;SDS011;10722;51.910;8.352;2022-08-01T15:04:51;10.93;;;3.17;;
21128;SDS011;10722;51.910;8.352;2022-08-01T15:07:37;12.68;;;4.32;;
21128;SDS011;10722;51.910;8.352;2022-08-01T15:10:37;11.18;;;3.30;;
21128;SDS011;10722;51.910;8.352;2022-08-01T15:13:23;8.05;;;3.28;;
21128;SDS011;10722;51.910;8.352;2022-08-01T15:16:08;7.80;;;2.90;;
21128;SDS011;10722;51.910;8.352;2022-08-01T15:18:56;11.68;;;3.35;;
21128;SDS011;10722;51.910;8.352;2022-08-01T15:21:41;12.45;;;3.53;;
21128;SDS011;10722;51.910;8.352;2022-08-01T15:24:27;8.68;;;3.40;;
21128;SDS011;10722;51.910;8.352;2022-08-01T15:27:12;11.98;;;3.70;;
21128;SDS011;10722;51.910;8.352;2022-08-01T15:29:57;8.52;;;2.88;;
21128;SDS011;10722;51.910;8.352;2022-08-01T15:32:43;11.45;;;3.20;;
21128;SDS011;10722;51.910;8.352;2022-08-01T15:35:28;8.10;;;2.95;;
21128;SDS011;10722;51.910;8.352;2022-08-01T15:38:13;9.75;;;3.00;;
21128;SDS011;10722;51.910;8.352;2022-08-01T15:40:58;8.00;;;2.63;;
21128;SDS011;10722;51.910;8.352;2022-08-01T15:43:43;10.05;;;3.08;;
21128;SDS011;10722;51.910;8.352;2022-08-01T15:46:29;8.85;;;3.63;;
21128;SDS011;10722;51.910;8.352;2022-08-01T15:49:15;9.80;;;3.10;;
21128;SDS011;10722;51.910;8.352;2022-08-01T15:52:02;10.63;;;3.17;;
21128;SDS011;10722;51.910;8.352;2022-08-01T15:54:48;9.95;;;2.80;;
21128;SDS011;10722;51.910;8.352;2022-08-01T15:57:34;9.60;;;3.10;;
21128;SDS011;10722;51.910;8.352;2022-08-01T16:00:19;9.75;;;2.90;;
21128;SDS011;10722;51.910;8.352;2022-08-01T16:03:04;9.32;;;3.17;;
21128;SDS011;10722;51.910;8.352;2022-08-01T16:05:50;8.90;;;2.78;;
21128;SDS011;10722;51.910;8.352;2022-08-01T16:08:35;10.82;;;3.05;;
21128;SDS011;10722;51.910;8.352;2022-08-01T16:11:21;12.45;;;3.20;;
21128;SDS011;10722;51.910;8.352;2022-08-01T16:14:06;12.10;;;3.20;;
21128;SDS011;10722;51.910;8.352;2022-08-01T16:16:51;13.05;;;3.25;;
21128;SDS011;10722;51.910;8.352;2022-08-01T16:19:39;9.50;;;3.08;;
21128;SDS011;10722;51.910;8.352;2022-08-01T16:22:24;11.32;;;3.03;;
21128;SDS011;10722;51.910;8.352;2022-08-01T16:25:10;12.25;;;3.20;;
21128;SDS011;10722;51.910;8.352;2022-08-01T16:27:55;9.55;;;3.13;;
21128;SDS011;10722;51.910;8.352;2022-08-01T16:30:41;11.10;;;3.15;;
21128;SDS011;10722;51.910;8.352;2022-08-01T16:33:39;13.02;;;3.38;;
21128;SDS011;10722;51.910;8.352;2022-08-01T16:36:39;12.30;;;3.40;;
21128;SDS011;10722;51.910;8.352;2022-08-01T16:39:25;17.10;;;8.80;;
21128;SDS011;10722;51.910;8.352;2022-08-01T16:42:10;13.23;;;3.65;;
21128;SDS011;10722;51.910;8.352;2022-08-01T16:44:56;12.20;;;3.70;;
21128;SDS011;10722;51.910;8.352;2022-08-01T16:47:42;14.27;;;4.22;;
21128;SDS011;10722;51.910;8.352;2022-08-01T16:50:27;13.55;;;3.40;;
21128;SDS011;10722;51.910;8.352;2022-08-01T16:53:13;11.23;;;3.13;;
21128;SDS011;10722;51.910;8.352;2022-08-01T16:56:02;14.18;;;3.97;;
21128;SDS011;10722;51.910;8.352;2022-08-01T16:58:47;13.30;;;3.28;;
21128;SDS011;10722;51.910;8.352;2022-08-01T17:01:33;12.18;;;3.70;;
21128;SDS011;10722;51.910;8.352;2022-08-01T17:04:38;12.38;;;3.35;;
21128;SDS011;10722;51.910;8.352;2022-08-01T17:07:24;10.95;;;3.60;;
21128;SDS011;10722;51.910;8.352;2022-08-01T17:10:12;15.10;;;3.70;;
21128;SDS011;10722;51.910;8.352;2022-08-01T17:12:57;12.00;;;3.83;;
21128;SDS011;10722;51.910;8.352;2022-08-01T17:15:43;11.45;;;4.10;;
21128;SDS011;10722;51.910;8.352;2022-08-01T17:18:28;13.63;;;3.90;;